Repto Caguax, Puerto Rico
Current Conditions -  °F | °C
As of 6:56 AM on Wednesday 26 Nov 2014 (Local Time) from TJSJ Reporting Station
Overcast Overcast  
Wind Chill: 76°   Ceiling: 3000
Heat Index: 76°   Visibility: 10mi
Dew Point: 74°   Wind: 12mph
Humidity: 94%   Direction: 120°ESE
Pressure: 30.02"   Gusts: 17mph
Location:  18.2361°N, 66.0369°W
Report Text: TJSJ 261056Z 12010G15KT 10SM FEW021 BKN030 OVC060 24/23 A3002 RMK AO2 RAE10 SLP163 VCSH N E S-W P0000 T02440233
Loading
Personal Weather Stations






























Interactive Weather Map New forecast layout! Learn more

10-Day Weather Forecast

Advertisements
Track Severe Weather on mobile